createdAt,value
2024-05-09T00:00:35.458Z,13.08
2024-05-09T00:03:07.071Z,13.13
2024-05-09T00:05:34.165Z,13.16
2024-05-09T00:08:01.223Z,13.19
2024-05-09T00:10:35.563Z,13.22
2024-05-09T00:13:04.982Z,13.26
2024-05-09T00:15:33.010Z,13.26
2024-05-09T00:17:59.652Z,13.23
2024-05-09T00:20:35.067Z,13.18
2024-05-09T00:23:06.780Z,13.15
2024-05-09T00:25:33.815Z,13.16
2024-05-09T00:28:00.343Z,13.15
2024-05-09T00:30:33.590Z,13.13
2024-05-09T00:33:04.046Z,13.00
2024-05-09T00:35:31.718Z,12.96
2024-05-09T00:37:58.434Z,12.98
2024-05-09T00:54:02.492Z,12.96
2024-05-09T00:56:29.388Z,13.10
2024-05-09T00:58:56.235Z,12.94
2024-05-09T01:01:23.358Z,12.79
2024-05-09T01:03:51.328Z,12.67
2024-05-09T01:06:20.270Z,12.55
2024-05-09T01:08:47.426Z,12.46
2024-05-09T01:11:16.223Z,12.37
2024-05-09T01:13:44.908Z,12.30
2024-05-09T01:16:12.947Z,12.23
2024-05-09T01:18:40.065Z,12.15
2024-05-09T01:21:09.268Z,12.04
2024-05-09T01:23:36.343Z,11.91
2024-05-09T01:26:03.253Z,11.78
2024-05-09T01:28:30.078Z,11.66
2024-05-09T01:30:56.722Z,11.50
2024-05-09T01:33:23.551Z,11.40
2024-05-09T01:35:50.314Z,11.32
2024-05-09T01:38:19.665Z,11.30
2024-05-09T01:40:48.240Z,11.25
2024-05-09T01:43:15.942Z,11.17
2024-05-09T01:45:42.528Z,11.07
2024-05-09T01:48:09.621Z,11.00
2024-05-09T01:50:40.491Z,10.94
2024-05-09T01:53:14.376Z,10.89
2024-05-09T01:55:41.823Z,10.85
2024-05-09T01:58:09.176Z,10.80
2024-05-09T02:00:40.011Z,10.78
2024-05-09T02:03:10.037Z,10.72
2024-05-09T02:05:37.528Z,10.65
2024-05-09T02:08:05.460Z,10.58
2024-05-09T02:10:33.451Z,10.55
2024-05-09T02:13:00.874Z,10.57
2024-05-09T02:15:27.815Z,10.60
2024-05-09T02:17:54.844Z,10.58
2024-05-09T02:20:30.279Z,10.54
2024-05-09T02:23:04.872Z,10.47
2024-05-09T02:25:32.518Z,10.42
2024-05-09T02:27:59.519Z,10.40
2024-05-09T02:30:36.098Z,10.35
2024-05-09T02:33:07.919Z,10.34
2024-05-09T02:35:36.187Z,10.38
2024-05-09T02:38:03.323Z,10.39
2024-05-09T02:40:36.703Z,10.39
2024-05-09T02:43:06.928Z,10.41
2024-05-09T02:45:33.978Z,10.39
2024-05-09T02:48:01.567Z,10.42
2024-05-09T02:50:37.075Z,10.44
2024-05-09T02:53:07.424Z,10.43
2024-05-09T02:55:34.816Z,10.37
2024-05-09T02:58:01.540Z,10.32
2024-05-09T03:00:36.776Z,10.28
2024-05-09T03:03:07.641Z,10.24
2024-05-09T03:05:35.188Z,10.20
2024-05-09T03:08:02.127Z,10.18
2024-05-09T03:10:34.512Z,10.21
2024-05-09T03:13:12.196Z,10.29
2024-05-09T03:15:40.598Z,10.34
2024-05-09T03:18:08.577Z,10.31
2024-05-09T03:20:36.910Z,10.26
2024-05-09T03:23:08.054Z,10.23
2024-05-09T03:25:36.101Z,10.26
2024-05-09T03:28:03.404Z,10.27
2024-05-09T03:30:39.341Z,10.27
2024-05-09T03:33:15.549Z,10.25
2024-05-09T03:35:43.736Z,10.26
2024-05-09T03:38:10.554Z,10.27
2024-05-09T03:40:46.857Z,10.24
2024-05-09T03:43:14.396Z,10.31
2024-05-09T03:45:44.514Z,10.41
2024-05-09T03:48:11.461Z,10.50
2024-05-09T03:50:38.632Z,10.48
2024-05-09T03:53:05.806Z,10.45
2024-05-09T03:55:32.502Z,10.46
2024-05-09T03:57:59.577Z,10.46
2024-05-09T04:00:34.885Z,10.53
2024-05-09T04:03:11.277Z,10.48
2024-05-09T04:05:42.640Z,10.44
2024-05-09T04:08:13.011Z,10.43
2024-05-09T04:10:40.509Z,10.39
2024-05-09T04:13:07.193Z,10.40
2024-05-09T04:15:33.835Z,10.39
2024-05-09T04:18:01.330Z,10.34
2024-05-09T04:20:36.540Z,10.34
2024-05-09T04:23:08.244Z,10.37
2024-05-09T04:25:36.953Z,10.41
2024-05-09T04:28:03.911Z,10.45
2024-05-09T04:30:37.442Z,10.41
2024-05-09T04:33:09.400Z,10.31
2024-05-09T04:35:38.906Z,10.26
2024-05-09T04:38:06.382Z,10.30
2024-05-09T04:40:36.173Z,10.36
2024-05-09T04:43:13.332Z,10.47
2024-05-09T04:45:40.659Z,10.59
2024-05-09T04:48:08.235Z,10.67
2024-05-09T04:50:38.322Z,10.78
2024-05-09T04:53:08.474Z,10.94
2024-05-09T04:55:36.686Z,10.98
2024-05-09T04:58:03.509Z,10.97
2024-05-09T05:00:36.163Z,10.95
2024-05-09T05:03:08.055Z,10.98
2024-05-09T05:05:42.605Z,11.06
2024-05-09T05:08:17.950Z,11.21
2024-05-09T05:10:46.282Z,11.30
2024-05-09T05:13:19.972Z,11.37
2024-05-09T05:15:48.798Z,11.36
2024-05-09T05:18:16.091Z,11.30
2024-05-09T05:20:43.246Z,11.26
2024-05-09T05:23:11.662Z,11.25
2024-05-09T05:25:40.043Z,11.23
2024-05-09T05:28:06.878Z,11.28
2024-05-09T05:30:42.534Z,11.36
2024-05-09T05:33:10.738Z,11.47
2024-05-09T05:35:38.130Z,11.58
2024-05-09T05:38:06.273Z,11.68
2024-05-09T05:40:36.799Z,11.71
2024-05-09T05:43:05.570Z,11.71
2024-05-09T05:45:32.787Z,11.70
2024-05-09T05:48:02.285Z,11.64
2024-05-09T05:50:35.473Z,11.56
2024-05-09T05:53:08.212Z,11.53
2024-05-09T05:55:40.203Z,11.58
2024-05-09T05:58:10.845Z,11.63
2024-05-09T06:00:40.083Z,11.66
2024-05-09T06:03:09.266Z,11.71
2024-05-09T06:05:39.236Z,11.79
2024-05-09T06:08:06.555Z,11.81
2024-05-09T06:10:38.361Z,11.85
2024-05-09T06:13:10.500Z,11.90
2024-05-09T06:15:37.499Z,11.96
2024-05-09T06:18:08.069Z,12.02
2024-05-09T06:20:37.681Z,12.10
2024-05-09T06:23:06.487Z,12.23
2024-05-09T06:25:37.032Z,12.36
2024-05-09T06:28:04.156Z,12.46
2024-05-09T06:30:38.631Z,12.50
2024-05-09T06:33:10.407Z,12.55
2024-05-09T06:35:39.377Z,12.63
2024-05-09T06:38:08.542Z,12.60
2024-05-09T06:40:38.538Z,12.59
2024-05-09T06:43:11.439Z,12.57
2024-05-09T06:45:39.435Z,12.52
2024-05-09T06:48:07.110Z,12.53
2024-05-09T06:50:37.869Z,12.53
2024-05-09T06:53:06.394Z,12.54
2024-05-09T06:55:33.453Z,12.49
2024-05-09T06:58:00.135Z,12.48
2024-05-09T07:00:34.649Z,12.52
2024-05-09T07:03:09.258Z,12.62
2024-05-09T07:05:37.089Z,12.70
2024-05-09T07:08:04.725Z,12.70
2024-05-09T07:10:35.186Z,12.76
2024-05-09T07:13:02.937Z,12.86
2024-05-09T07:15:30.911Z,12.91
2024-05-09T07:17:57.930Z,12.92
2024-05-09T07:20:32.457Z,12.98
2024-05-09T07:23:02.948Z,13.07
2024-05-09T07:25:30.291Z,13.07
2024-05-09T07:27:57.230Z,13.04
2024-05-09T07:30:30.837Z,13.07
2024-05-09T07:33:01.433Z,13.15
2024-05-09T07:35:29.798Z,13.20
2024-05-09T07:37:56.906Z,13.27
2024-05-09T07:40:32.573Z,13.27
2024-05-09T07:43:06.973Z,13.29
2024-05-09T07:52:32.413Z,13.37
2024-05-09T07:53:39.650Z,13.35
2024-05-09T07:56:11.981Z,13.35
2024-05-09T07:58:45.593Z,13.34
2024-05-09T08:01:12.981Z,13.35
2024-05-09T08:03:39.985Z,13.36
2024-05-09T08:06:06.747Z,13.36
2024-05-09T08:08:33.603Z,13.39
2024-05-09T08:11:01.596Z,13.43
2024-05-09T08:13:28.210Z,13.43
2024-05-09T08:15:54.900Z,13.45
2024-05-09T08:18:21.665Z,13.44
2024-05-09T08:20:48.967Z,13.44
2024-05-09T08:23:15.678Z,13.44
2024-05-09T08:25:42.391Z,13.42
2024-05-09T08:28:10.459Z,13.46
2024-05-09T08:30:38.278Z,13.57
2024-05-09T08:33:06.580Z,13.68
2024-05-09T08:35:34.313Z,13.69
2024-05-09T08:38:02.764Z,13.71
2024-05-09T08:40:35.320Z,13.80
2024-05-09T08:43:06.898Z,13.89
2024-05-09T08:45:35.050Z,13.96
2024-05-09T08:48:05.248Z,14.03
2024-05-09T08:50:38.442Z,14.06
2024-05-09T08:53:07.540Z,14.05
2024-05-09T08:55:35.480Z,13.97
2024-05-09T08:58:03.485Z,13.95
2024-05-09T09:00:36.726Z,14.00
2024-05-09T09:03:06.453Z,14.06
2024-05-09T09:05:33.806Z,14.06
2024-05-09T09:08:10.016Z,14.05
2024-05-09T09:10:38.102Z,14.04
2024-05-09T09:13:08.936Z,14.07
2024-05-09T09:15:50.481Z,14.15
2024-05-09T09:18:18.300Z,14.28
2024-05-09T09:20:45.502Z,14.40
2024-05-09T09:23:12.294Z,14.47
2024-05-09T09:25:39.660Z,14.52
2024-05-09T09:28:06.918Z,14.59
2024-05-09T09:30:37.403Z,14.58
2024-05-09T09:33:06.091Z,14.61
2024-05-09T09:35:33.876Z,14.57
2024-05-09T09:38:04.237Z,14.49
2024-05-09T09:40:35.928Z,14.50
2024-05-09T09:43:07.301Z,14.58
2024-05-09T09:45:34.267Z,14.62
2024-05-09T09:48:00.992Z,14.68
2024-05-09T09:50:33.861Z,14.63
2024-05-09T09:53:01.855Z,14.47
2024-05-09T09:55:32.177Z,14.48
2024-05-09T09:57:58.888Z,14.60
2024-05-09T10:00:32.058Z,14.71
2024-05-09T10:03:00.267Z,14.76
2024-05-09T10:05:27.448Z,14.80
2024-05-09T10:07:54.237Z,14.88
2024-05-09T10:10:31.495Z,14.89
2024-05-09T10:13:03.353Z,14.85
2024-05-09T10:15:45.444Z,14.84
2024-05-09T10:18:12.600Z,14.84
2024-05-09T10:20:46.017Z,14.90
2024-05-09T10:23:43.340Z,15.05
2024-05-09T10:26:10.744Z,15.20
2024-05-09T10:28:42.089Z,15.23
2024-05-09T10:31:13.133Z,15.28
2024-05-09T10:33:47.485Z,15.37
2024-05-09T10:36:19.648Z,15.41
2024-05-09T10:38:46.269Z,15.39
2024-05-09T10:41:12.849Z,15.32
2024-05-09T10:43:40.696Z,15.30
2024-05-09T10:46:07.606Z,15.23
2024-05-09T10:48:34.513Z,15.24
2024-05-09T10:51:01.170Z,15.31
2024-05-09T10:53:27.783Z,15.39
2024-05-09T10:56:01.282Z,15.38
2024-05-09T10:58:28.200Z,15.31
2024-05-09T11:00:57.799Z,15.33
2024-05-09T11:03:24.742Z,15.41
2024-05-09T11:05:51.861Z,15.42
2024-05-09T11:08:24.749Z,15.48
2024-05-09T11:10:52.416Z,15.56
2024-05-09T11:13:32.411Z,15.66
2024-05-09T11:15:59.725Z,15.72
2024-05-09T11:18:29.793Z,15.77
2024-05-09T11:20:58.776Z,15.74
2024-05-09T11:23:26.696Z,15.63
2024-05-09T11:25:57.650Z,15.55
2024-05-09T11:28:26.497Z,15.50
2024-05-09T11:30:53.126Z,15.47
2024-05-09T11:33:20.004Z,15.48
2024-05-09T11:35:46.896Z,15.54
2024-05-09T11:38:13.556Z,15.56
2024-05-09T11:40:41.527Z,15.50
2024-05-09T11:43:08.260Z,15.46
2024-05-09T11:45:34.897Z,15.41
2024-05-09T12:00:24.583Z,15.72
2024-05-09T12:02:59.610Z,15.90
2024-05-09T12:05:26.739Z,15.79
2024-05-09T12:07:54.568Z,15.84
2024-05-09T12:10:31.966Z,15.89
2024-05-09T12:13:01.323Z,15.93
2024-05-09T12:15:28.057Z,15.98
2024-05-09T12:17:57.325Z,16.05
2024-05-09T12:20:34.374Z,16.13
2024-05-09T12:23:04.654Z,16.21
2024-05-09T12:25:31.906Z,16.30
2024-05-09T12:27:58.715Z,16.35
2024-05-09T12:30:35.001Z,16.29
2024-05-09T12:33:07.418Z,16.14
2024-05-09T12:35:34.485Z,15.96
2024-05-09T12:38:01.180Z,15.87
2024-05-09T12:40:35.637Z,15.82
2024-05-09T12:43:06.966Z,15.85
2024-05-09T12:45:34.253Z,15.90
2024-05-09T12:48:01.334Z,15.92
2024-05-09T12:50:33.034Z,15.92
2024-05-09T12:53:02.164Z,15.94
2024-05-09T12:55:33.462Z,15.97
2024-05-09T12:58:06.943Z,16.02
2024-05-09T13:00:34.699Z,16.07
2024-05-09T13:03:01.775Z,16.10
2024-05-09T13:05:29.345Z,16.09
2024-05-09T13:07:56.796Z,15.99
2024-05-09T13:10:31.061Z,15.98
2024-05-09T13:13:00.805Z,16.07
2024-05-09T13:15:28.307Z,16.15
2024-05-09T13:17:57.924Z,16.18
2024-05-09T13:20:32.693Z,16.20
2024-05-09T13:23:02.717Z,16.25
2024-05-09T13:25:29.742Z,16.27
2024-05-09T13:27:57.307Z,16.30
2024-05-09T13:30:30.007Z,16.33
2024-05-09T13:33:06.471Z,16.32
2024-05-09T13:35:35.667Z,16.31
2024-05-09T13:38:02.984Z,16.28
2024-05-09T13:40:34.332Z,16.21
2024-05-09T13:43:06.177Z,16.15
2024-05-09T13:45:33.986Z,16.13
2024-05-09T13:48:02.455Z,16.12
2024-05-09T13:50:34.437Z,16.08
2024-05-09T13:53:04.759Z,16.08
2024-05-09T13:55:32.124Z,16.13
2024-05-09T13:57:58.920Z,16.19
2024-05-09T14:00:37.959Z,16.19
2024-05-09T14:03:11.908Z,16.08
2024-05-09T14:05:38.921Z,16.04
2024-05-09T14:08:06.046Z,16.06
2024-05-09T14:10:33.396Z,16.09
2024-05-09T14:13:00.793Z,16.10
2024-05-09T14:15:27.860Z,16.08
2024-05-09T14:17:54.908Z,16.06
2024-05-09T14:22:51.173Z,16.10
2024-05-09T14:25:17.981Z,16.12
2024-05-09T14:27:44.687Z,16.16
2024-05-09T14:30:18.340Z,16.17
2024-05-09T14:32:53.161Z,16.17
2024-05-09T14:35:20.186Z,16.16
2024-05-09T14:37:46.991Z,16.12
2024-05-09T14:40:30.287Z,16.04
2024-05-09T14:43:03.139Z,16.00
2024-05-09T14:45:32.287Z,15.97
2024-05-09T14:47:59.160Z,15.92
2024-05-09T14:50:34.635Z,15.85
2024-05-09T14:53:05.939Z,15.87
2024-05-09T14:55:35.770Z,15.91
2024-05-09T14:58:03.759Z,15.96
2024-05-09T15:00:35.876Z,15.98
2024-05-09T15:03:05.213Z,15.96
2024-05-09T15:05:32.061Z,15.92
2024-05-09T15:07:59.225Z,15.81
2024-05-09T15:10:33.851Z,15.76
2024-05-09T15:13:03.800Z,15.71
2024-05-09T15:15:30.918Z,15.68
2024-05-09T15:17:57.938Z,15.71
2024-05-09T15:20:32.969Z,15.72
2024-05-09T15:23:02.898Z,15.70
2024-05-09T15:25:30.304Z,15.74
2024-05-09T15:27:57.439Z,15.80
2024-05-09T15:30:30.400Z,15.87
2024-05-09T15:33:00.699Z,15.88
2024-05-09T15:35:27.850Z,15.88
2024-05-09T15:37:54.892Z,15.90
2024-05-09T15:40:30.914Z,15.93
2024-05-09T15:43:05.786Z,15.92
2024-05-09T15:45:32.868Z,15.88
2024-05-09T15:47:59.883Z,15.81
2024-05-09T15:50:35.794Z,15.77
2024-05-09T15:53:08.304Z,15.73
2024-05-09T15:55:36.020Z,15.67
2024-05-09T15:58:03.436Z,15.64
2024-05-09T16:00:38.725Z,15.62
2024-05-09T16:03:10.108Z,15.64
2024-05-09T16:05:37.635Z,15.67
2024-05-09T16:08:05.542Z,15.69
2024-05-09T16:10:33.967Z,15.70
2024-05-09T16:13:02.398Z,15.70
2024-05-09T16:15:30.257Z,15.70
2024-05-09T16:17:57.217Z,15.69
2024-05-09T16:22:54.172Z,15.61
2024-05-09T16:25:20.906Z,15.56
2024-05-09T16:27:47.854Z,15.55
2024-05-09T16:30:21.352Z,15.53
2024-05-09T16:32:55.968Z,15.51
2024-05-09T16:35:22.734Z,15.48
2024-05-09T16:37:49.565Z,15.46
2024-05-09T16:40:25.242Z,15.45
2024-05-09T16:43:03.826Z,15.48
2024-05-09T16:45:30.759Z,15.46
2024-05-09T16:47:58.928Z,15.45
2024-05-09T16:50:31.064Z,15.46
2024-05-09T16:53:00.243Z,15.43
2024-05-09T16:55:27.172Z,15.39
2024-05-09T16:57:54.296Z,15.37
2024-05-09T17:00:31.238Z,15.35
2024-05-09T17:03:07.455Z,15.35
2024-05-09T17:05:34.901Z,15.33
2024-05-09T17:08:02.257Z,15.29
2024-05-09T17:10:33.119Z,15.26
2024-05-09T17:13:06.684Z,15.23
2024-05-09T17:15:35.666Z,15.15
2024-05-09T17:18:03.437Z,15.11
2024-05-09T17:20:34.586Z,15.10
2024-05-09T17:23:04.946Z,15.07
2024-05-09T17:25:32.517Z,15.01
2024-05-09T17:28:06.199Z,14.92
2024-05-09T17:30:36.828Z,14.83
2024-05-09T17:33:06.853Z,14.79
2024-05-09T17:35:35.060Z,14.76
2024-05-09T17:38:01.903Z,14.75
2024-05-09T17:40:33.639Z,14.76
2024-05-09T17:43:04.454Z,14.74
2024-05-09T17:45:32.230Z,14.71
2024-05-09T17:47:59.630Z,14.69
2024-05-09T17:50:31.869Z,14.68
2024-05-09T17:53:03.008Z,14.66
2024-05-09T17:55:30.026Z,14.65
2024-05-09T17:57:57.169Z,14.65
2024-05-09T18:00:36.121Z,14.63
2024-05-09T18:03:07.383Z,14.61
2024-05-09T18:05:37.865Z,14.58
2024-05-09T18:08:06.309Z,14.55
2024-05-09T18:10:37.164Z,14.52
2024-05-09T18:13:09.728Z,14.47
2024-05-09T18:15:37.017Z,14.45
2024-05-09T18:18:04.595Z,14.42
2024-05-09T18:20:40.332Z,14.37
2024-05-09T18:23:12.324Z,14.34
2024-05-09T18:25:38.939Z,14.33
2024-05-09T18:28:06.392Z,14.32
2024-05-09T18:30:35.894Z,14.30
2024-05-09T18:33:05.868Z,14.29
2024-05-09T18:35:33.981Z,14.28
2024-05-09T18:38:00.584Z,14.27
2024-05-09T18:40:32.991Z,14.27
2024-05-09T18:43:04.161Z,14.25
2024-05-09T18:45:31.242Z,14.21
2024-05-09T18:47:58.316Z,14.17
2024-05-09T18:50:33.993Z,14.14
2024-05-09T18:53:12.210Z,14.07
2024-05-09T18:55:41.104Z,14.00
2024-05-09T18:58:07.888Z,13.95
2024-05-09T19:00:38.431Z,13.91
2024-05-09T19:03:10.484Z,13.90
2024-05-09T19:05:40.491Z,13.89
2024-05-09T19:08:08.186Z,13.86
2024-05-09T19:10:37.081Z,13.83
2024-05-09T19:13:07.167Z,13.79
2024-05-09T19:15:38.085Z,13.73
2024-05-09T19:18:05.775Z,13.66
2024-05-09T19:20:35.209Z,13.60
2024-05-09T19:23:03.969Z,13.53
2024-05-09T19:25:31.686Z,13.49
2024-05-09T19:27:58.576Z,13.43
2024-05-09T19:30:34.628Z,13.41
2024-05-09T19:33:07.590Z,13.40
2024-05-09T19:35:34.778Z,13.39
2024-05-09T19:38:01.821Z,13.37
2024-05-09T19:40:32.063Z,13.36
2024-05-09T19:43:02.152Z,13.32
2024-05-09T19:45:30.692Z,13.26
2024-05-09T19:47:57.861Z,13.18
2024-05-09T19:50:32.478Z,13.12
2024-05-09T19:53:07.972Z,13.07
2024-05-09T19:55:35.104Z,13.03
2024-05-09T19:58:05.190Z,12.99
2024-05-09T20:00:39.378Z,12.96
2024-05-09T20:03:09.280Z,12.92
2024-05-09T20:05:37.127Z,12.89
2024-05-09T20:08:04.919Z,12.85
2024-05-09T20:10:35.199Z,12.79
2024-05-09T20:13:07.483Z,12.74
2024-05-09T20:15:35.334Z,12.69
2024-05-09T20:18:03.330Z,12.62
2024-05-09T20:20:37.644Z,12.54
2024-05-09T20:23:09.542Z,12.47
2024-05-09T20:25:37.230Z,12.42
2024-05-09T20:28:04.954Z,12.40
2024-05-09T20:30:35.743Z,12.40
2024-05-09T20:33:04.534Z,12.39
2024-05-09T20:35:32.956Z,12.36
2024-05-09T20:38:00.723Z,12.33
2024-05-09T20:40:32.684Z,12.28
2024-05-09T20:43:03.702Z,12.23
2024-05-09T20:45:30.930Z,12.23
2024-05-09T20:47:57.993Z,12.21
2024-05-09T20:50:35.522Z,12.16
2024-05-09T20:53:08.568Z,12.10
2024-05-09T20:55:36.265Z,12.07
2024-05-09T20:58:03.082Z,12.02
2024-05-09T21:00:38.786Z,11.96
2024-05-09T21:03:09.857Z,11.91
2024-05-09T21:05:37.529Z,11.88
2024-05-09T21:08:05.212Z,11.84
2024-05-09T21:10:33.638Z,11.80
2024-05-09T21:13:02.551Z,11.74
2024-05-09T21:15:30.702Z,11.72
2024-05-09T21:17:57.877Z,11.73
2024-05-09T21:20:30.915Z,11.69
2024-05-09T21:22:59.544Z,11.66
2024-05-09T21:25:26.473Z,11.68
2024-05-09T21:27:53.798Z,11.69
2024-05-09T21:30:31.627Z,11.70
2024-05-09T21:33:08.443Z,11.70
2024-05-09T21:35:35.958Z,11.68
2024-05-09T21:38:04.278Z,11.64
2024-05-09T21:40:34.633Z,11.61
2024-05-09T21:43:04.015Z,11.58
2024-05-09T21:45:32.082Z,11.56
2024-05-09T21:47:59.305Z,11.55
2024-05-09T21:50:32.067Z,11.55
2024-05-09T21:53:05.807Z,11.57
2024-05-09T21:55:33.372Z,11.57
2024-05-09T21:58:00.283Z,11.54
2024-05-09T22:00:34.752Z,11.54
2024-05-09T22:03:05.481Z,11.51
2024-05-09T22:05:32.469Z,11.51
2024-05-09T22:07:59.535Z,11.52
2024-05-09T22:10:32.822Z,11.50
2024-05-09T22:13:02.273Z,11.48
2024-05-09T22:15:29.246Z,11.48
2024-05-09T22:17:57.181Z,11.47
2024-05-09T22:20:33.475Z,11.43
2024-05-09T22:23:04.453Z,11.40
2024-05-09T22:25:32.328Z,11.33
2024-05-09T22:28:02.093Z,11.26
2024-05-09T22:32:58.923Z,11.21
2024-05-09T22:35:25.657Z,11.19
2024-05-09T22:37:52.470Z,11.18
2024-05-09T22:40:28.843Z,11.18
2024-05-09T22:43:05.616Z,11.17
2024-05-09T22:45:32.718Z,11.17
2024-05-09T22:47:59.821Z,11.17
2024-05-09T22:50:32.501Z,11.13
2024-05-09T22:53:00.221Z,11.11
2024-05-09T22:55:26.919Z,11.10
2024-05-09T22:57:53.583Z,11.07
2024-05-09T23:00:29.171Z,11.02
2024-05-09T23:03:02.352Z,10.96
2024-05-09T23:05:30.503Z,10.93
2024-05-09T23:07:57.500Z,10.90
2024-05-09T23:10:31.656Z,10.89
2024-05-09T23:13:03.137Z,10.88
2024-05-09T23:15:30.268Z,10.88
2024-05-09T23:17:57.352Z,10.88
2024-05-09T23:22:54.759Z,10.85
2024-05-09T23:25:21.461Z,10.81
2024-05-09T23:27:48.208Z,10.80
2024-05-09T23:30:25.428Z,10.79
2024-05-09T23:32:56.116Z,10.79
2024-05-09T23:35:23.184Z,10.76
2024-05-09T23:37:49.815Z,10.70
2024-05-09T23:40:19.054Z,10.64
2024-05-09T23:42:49.401Z,10.57
2024-05-09T23:45:16.303Z,10.53
2024-05-09T23:47:43.131Z,10.52
2024-05-09T23:50:16.723Z,10.52
2024-05-09T23:52:50.217Z,10.53
2024-05-09T23:55:17.770Z,10.53
2024-05-09T23:57:44.953Z,10.54
